sensor_id;sensor_type;location;lat;lon;timestamp;P1;durP1;ratioP1;P2;durP2;ratioP2
1410;SDS011;700;51.906;8.404;2023-06-14T00:04:39;4.93;;;2.77;;
1410;SDS011;700;51.906;8.404;2023-06-14T00:09:41;4.80;;;2.90;;
1410;SDS011;700;51.906;8.404;2023-06-14T00:14:45;4.30;;;2.80;;
1410;SDS011;700;51.906;8.404;2023-06-14T00:19:49;4.70;;;2.73;;
1410;SDS011;700;51.906;8.404;2023-06-14T00:24:53;5.80;;;2.80;;
1410;SDS011;700;51.906;8.404;2023-06-14T00:29:53;5.70;;;2.90;;
1410;SDS011;700;51.906;8.404;2023-06-14T00:34:54;4.50;;;3.20;;
1410;SDS011;700;51.906;8.404;2023-06-14T00:39:55;7.87;;;2.77;;
1410;SDS011;700;51.906;8.404;2023-06-14T00:44:56;7.50;;;3.33;;
1410;SDS011;700;51.906;8.404;2023-06-14T00:49:57;6.70;;;2.97;;
1410;SDS011;700;51.906;8.404;2023-06-14T00:54:58;6.13;;;2.93;;
1410;SDS011;700;51.906;8.404;2023-06-14T00:59:59;5.83;;;2.80;;
1410;SDS011;700;51.906;8.404;2023-06-14T01:04:59;5.20;;;2.80;;
1410;SDS011;700;51.906;8.404;2023-06-14T01:10:09;4.60;;;2.70;;
1410;SDS011;700;51.906;8.404;2023-06-14T01:15:21;4.40;;;3.00;;
1410;SDS011;700;51.906;8.404;2023-06-14T01:20:23;6.00;;;3.33;;
1410;SDS011;700;51.906;8.404;2023-06-14T01:25:29;4.73;;;2.93;;
1410;SDS011;700;51.906;8.404;2023-06-14T01:30:30;6.20;;;3.00;;
1410;SDS011;700;51.906;8.404;2023-06-14T01:35:36;6.27;;;2.93;;
1410;SDS011;700;51.906;8.404;2023-06-14T01:40:37;8.03;;;2.70;;
1410;SDS011;700;51.906;8.404;2023-06-14T01:45:40;8.37;;;3.77;;
1410;SDS011;700;51.906;8.404;2023-06-14T01:50:41;6.47;;;3.60;;
1410;SDS011;700;51.906;8.404;2023-06-14T01:55:44;6.33;;;3.77;;
1410;SDS011;700;51.906;8.404;2023-06-14T02:00:48;5.90;;;3.53;;
1410;SDS011;700;51.906;8.404;2023-06-14T02:05:53;5.53;;;2.90;;
1410;SDS011;700;51.906;8.404;2023-06-14T02:10:56;5.23;;;2.70;;
1410;SDS011;700;51.906;8.404;2023-06-14T02:15:56;5.97;;;3.13;;
1410;SDS011;700;51.906;8.404;2023-06-14T02:20:57;5.60;;;3.00;;
1410;SDS011;700;51.906;8.404;2023-06-14T02:25:58;7.50;;;3.00;;
1410;SDS011;700;51.906;8.404;2023-06-14T02:30:58;3.97;;;2.83;;
1410;SDS011;700;51.906;8.404;2023-06-14T02:36:01;4.80;;;3.40;;
1410;SDS011;700;51.906;8.404;2023-06-14T02:41:05;7.80;;;2.70;;
1410;SDS011;700;51.906;8.404;2023-06-14T02:46:08;5.57;;;3.70;;
1410;SDS011;700;51.906;8.404;2023-06-14T02:51:11;5.10;;;3.20;;
1410;SDS011;700;51.906;8.404;2023-06-14T02:56:12;8.60;;;3.20;;
1410;SDS011;700;51.906;8.404;2023-06-14T03:01:15;4.23;;;2.67;;
1410;SDS011;700;51.906;8.404;2023-06-14T03:06:17;5.13;;;2.97;;
1410;SDS011;700;51.906;8.404;2023-06-14T03:11:20;10.10;;;3.10;;
1410;SDS011;700;51.906;8.404;2023-06-14T03:16:21;6.43;;;3.33;;
1410;SDS011;700;51.906;8.404;2023-06-14T03:21:23;5.03;;;3.03;;
1410;SDS011;700;51.906;8.404;2023-06-14T03:26:25;4.43;;;2.80;;
1410;SDS011;700;51.906;8.404;2023-06-14T03:31:31;5.07;;;2.93;;
1410;SDS011;700;51.906;8.404;2023-06-14T03:36:32;4.43;;;2.90;;
1410;SDS011;700;51.906;8.404;2023-06-14T03:41:33;4.73;;;2.60;;
1410;SDS011;700;51.906;8.404;2023-06-14T03:46:38;3.80;;;2.73;;
1410;SDS011;700;51.906;8.404;2023-06-14T03:51:41;4.57;;;2.50;;
1410;SDS011;700;51.906;8.404;2023-06-14T03:56:42;7.60;;;3.20;;
1410;SDS011;700;51.906;8.404;2023-06-14T04:01:45;5.77;;;2.80;;
1410;SDS011;700;51.906;8.404;2023-06-14T04:06:46;5.30;;;2.73;;
1410;SDS011;700;51.906;8.404;2023-06-14T04:11:48;5.17;;;3.10;;
1410;SDS011;700;51.906;8.404;2023-06-14T04:16:51;4.10;;;2.50;;
1410;SDS011;700;51.906;8.404;2023-06-14T04:21:52;7.23;;;3.10;;
1410;SDS011;700;51.906;8.404;2023-06-14T04:26:52;6.00;;;3.70;;
1410;SDS011;700;51.906;8.404;2023-06-14T04:31:54;5.30;;;2.93;;
1410;SDS011;700;51.906;8.404;2023-06-14T04:36:58;4.97;;;2.67;;
1410;SDS011;700;51.906;8.404;2023-06-14T04:42:02;6.40;;;3.00;;
1410;SDS011;700;51.906;8.404;2023-06-14T04:47:07;5.33;;;3.47;;
1410;SDS011;700;51.906;8.404;2023-06-14T04:52:08;5.03;;;2.70;;
1410;SDS011;700;51.906;8.404;2023-06-14T04:57:15;9.60;;;2.73;;
1410;SDS011;700;51.906;8.404;2023-06-14T05:02:22;5.40;;;2.70;;
1410;SDS011;700;51.906;8.404;2023-06-14T05:07:25;9.83;;;3.00;;
1410;SDS011;700;51.906;8.404;2023-06-14T05:12:26;4.77;;;2.73;;
1410;SDS011;700;51.906;8.404;2023-06-14T05:17:27;4.83;;;2.50;;
1410;SDS011;700;51.906;8.404;2023-06-14T05:22:30;4.33;;;2.73;;
1410;SDS011;700;51.906;8.404;2023-06-14T05:27:31;5.70;;;2.60;;
1410;SDS011;700;51.906;8.404;2023-06-14T05:32:31;4.77;;;3.50;;
1410;SDS011;700;51.906;8.404;2023-06-14T05:37:34;4.37;;;2.33;;
1410;SDS011;700;51.906;8.404;2023-06-14T05:42:36;4.10;;;1.97;;
1410;SDS011;700;51.906;8.404;2023-06-14T05:47:37;8.47;;;4.20;;
1410;SDS011;700;51.906;8.404;2023-06-14T05:52:39;5.03;;;2.30;;
1410;SDS011;700;51.906;8.404;2023-06-14T05:57:40;6.03;;;2.80;;
1410;SDS011;700;51.906;8.404;2023-06-14T06:02:42;3.80;;;2.37;;
1410;SDS011;700;51.906;8.404;2023-06-14T06:07:43;6.43;;;3.20;;
1410;SDS011;700;51.906;8.404;2023-06-14T06:12:46;3.70;;;2.27;;
1410;SDS011;700;51.906;8.404;2023-06-14T06:17:48;7.40;;;2.80;;
1410;SDS011;700;51.906;8.404;2023-06-14T06:22:49;6.27;;;2.47;;
1410;SDS011;700;51.906;8.404;2023-06-14T06:27:49;4.13;;;1.93;;
1410;SDS011;700;51.906;8.404;2023-06-14T06:32:52;3.90;;;2.07;;
1410;SDS011;700;51.906;8.404;2023-06-14T06:37:53;3.47;;;1.77;;
1410;SDS011;700;51.906;8.404;2023-06-14T06:42:54;4.00;;;1.90;;
1410;SDS011;700;51.906;8.404;2023-06-14T06:47:57;2.93;;;1.50;;
1410;SDS011;700;51.906;8.404;2023-06-14T06:52:58;3.80;;;1.33;;
1410;SDS011;700;51.906;8.404;2023-06-14T06:58:01;5.13;;;1.97;;
1410;SDS011;700;51.906;8.404;2023-06-14T07:03:01;2.73;;;1.20;;
1410;SDS011;700;51.906;8.404;2023-06-14T07:08:04;3.43;;;1.67;;
1410;SDS011;700;51.906;8.404;2023-06-14T07:13:10;5.50;;;1.53;;
1410;SDS011;700;51.906;8.404;2023-06-14T07:18:11;7.03;;;3.40;;
1410;SDS011;700;51.906;8.404;2023-06-14T07:23:12;2.90;;;1.50;;
1410;SDS011;700;51.906;8.404;2023-06-14T07:28:16;5.63;;;2.53;;
1410;SDS011;700;51.906;8.404;2023-06-14T07:33:17;3.23;;;1.90;;
1410;SDS011;700;51.906;8.404;2023-06-14T07:38:23;3.87;;;2.20;;
1410;SDS011;700;51.906;8.404;2023-06-14T07:43:24;3.43;;;1.60;;
1410;SDS011;700;51.906;8.404;2023-06-14T07:48:24;2.93;;;1.50;;
1410;SDS011;700;51.906;8.404;2023-06-14T07:53:25;4.00;;;1.50;;
1410;SDS011;700;51.906;8.404;2023-06-14T07:58:26;5.17;;;1.77;;
1410;SDS011;700;51.906;8.404;2023-06-14T08:03:29;3.70;;;1.87;;
1410;SDS011;700;51.906;8.404;2023-06-14T08:08:32;3.80;;;1.40;;
1410;SDS011;700;51.906;8.404;2023-06-14T08:13:32;2.80;;;1.70;;
1410;SDS011;700;51.906;8.404;2023-06-14T08:18:33;3.13;;;1.83;;
1410;SDS011;700;51.906;8.404;2023-06-14T08:23:34;2.90;;;1.40;;
1410;SDS011;700;51.906;8.404;2023-06-14T08:28:34;2.87;;;1.33;;
1410;SDS011;700;51.906;8.404;2023-06-14T08:33:35;3.00;;;1.63;;
1410;SDS011;700;51.906;8.404;2023-06-14T08:38:38;4.70;;;1.50;;
1410;SDS011;700;51.906;8.404;2023-06-14T08:43:39;3.40;;;1.47;;
1410;SDS011;700;51.906;8.404;2023-06-14T08:48:45;3.13;;;1.53;;
1410;SDS011;700;51.906;8.404;2023-06-14T08:53:52;4.00;;;1.77;;
1410;SDS011;700;51.906;8.404;2023-06-14T08:58:58;3.33;;;1.83;;
1410;SDS011;700;51.906;8.404;2023-06-14T09:04:03;3.67;;;1.67;;
1410;SDS011;700;51.906;8.404;2023-06-14T09:09:05;3.63;;;2.03;;
1410;SDS011;700;51.906;8.404;2023-06-14T09:14:07;4.00;;;1.47;;
1410;SDS011;700;51.906;8.404;2023-06-14T09:19:11;4.00;;;1.67;;
1410;SDS011;700;51.906;8.404;2023-06-14T09:24:21;3.87;;;1.87;;
1410;SDS011;700;51.906;8.404;2023-06-14T09:29:26;4.20;;;1.87;;
1410;SDS011;700;51.906;8.404;2023-06-14T09:34:27;3.70;;;1.63;;
1410;SDS011;700;51.906;8.404;2023-06-14T09:39:30;5.10;;;2.70;;
1410;SDS011;700;51.906;8.404;2023-06-14T09:44:31;4.50;;;2.17;;
1410;SDS011;700;51.906;8.404;2023-06-14T09:49:32;3.90;;;2.50;;
1410;SDS011;700;51.906;8.404;2023-06-14T09:54:35;7.93;;;3.03;;
1410;SDS011;700;51.906;8.404;2023-06-14T09:59:43;3.77;;;2.13;;
1410;SDS011;700;51.906;8.404;2023-06-14T10:04:46;2.87;;;1.80;;
1410;SDS011;700;51.906;8.404;2023-06-14T10:09:52;4.40;;;2.10;;
1410;SDS011;700;51.906;8.404;2023-06-14T10:14:55;5.13;;;1.97;;
1410;SDS011;700;51.906;8.404;2023-06-14T10:20:10;3.13;;;1.73;;
1410;SDS011;700;51.906;8.404;2023-06-14T10:25:30;5.03;;;1.70;;
1410;SDS011;700;51.906;8.404;2023-06-14T10:30:33;3.40;;;1.83;;
1410;SDS011;700;51.906;8.404;2023-06-14T10:35:34;3.17;;;1.80;;
1410;SDS011;700;51.906;8.404;2023-06-14T10:40:35;5.87;;;2.10;;
1410;SDS011;700;51.906;8.404;2023-06-14T10:45:51;4.23;;;2.00;;
1410;SDS011;700;51.906;8.404;2023-06-14T10:51:29;6.07;;;2.13;;
1410;SDS011;700;51.906;8.404;2023-06-14T11:12:39;4.20;;;2.00;;
1410;SDS011;700;51.906;8.404;2023-06-14T11:17:54;3.57;;;1.93;;
1410;SDS011;700;51.906;8.404;2023-06-14T11:22:57;3.07;;;1.93;;
1410;SDS011;700;51.906;8.404;2023-06-14T11:27:58;4.40;;;1.67;;
1410;SDS011;700;51.906;8.404;2023-06-14T11:33:01;3.20;;;2.30;;
1410;SDS011;700;51.906;8.404;2023-06-14T11:38:01;4.10;;;1.90;;
1410;SDS011;700;51.906;8.404;2023-06-14T11:43:02;4.40;;;1.70;;
1410;SDS011;700;51.906;8.404;2023-06-14T11:48:06;2.50;;;1.50;;
1410;SDS011;700;51.906;8.404;2023-06-14T11:53:09;3.13;;;1.80;;
1410;SDS011;700;51.906;8.404;2023-06-14T11:58:10;3.77;;;1.57;;
1410;SDS011;700;51.906;8.404;2023-06-14T12:03:12;3.73;;;1.87;;
1410;SDS011;700;51.906;8.404;2023-06-14T12:08:15;3.20;;;1.80;;
1410;SDS011;700;51.906;8.404;2023-06-14T12:13:17;2.83;;;1.60;;
1410;SDS011;700;51.906;8.404;2023-06-14T12:18:21;2.80;;;1.50;;
1410;SDS011;700;51.906;8.404;2023-06-14T12:23:47;5.77;;;3.30;;
1410;SDS011;700;51.906;8.404;2023-06-14T12:28:49;5.57;;;1.80;;
1410;SDS011;700;51.906;8.404;2023-06-14T12:33:51;3.27;;;1.80;;
1410;SDS011;700;51.906;8.404;2023-06-14T12:38:52;5.40;;;2.10;;
1410;SDS011;700;51.906;8.404;2023-06-14T12:43:55;4.13;;;1.80;;
1410;SDS011;700;51.906;8.404;2023-06-14T12:48:59;3.37;;;1.80;;
1410;SDS011;700;51.906;8.404;2023-06-14T12:54:03;2.70;;;1.60;;
1410;SDS011;700;51.906;8.404;2023-06-14T12:59:06;7.30;;;1.67;;
1410;SDS011;700;51.906;8.404;2023-06-14T13:04:07;3.63;;;2.00;;
1410;SDS011;700;51.906;8.404;2023-06-14T13:09:08;4.60;;;2.20;;
1410;SDS011;700;51.906;8.404;2023-06-14T13:14:08;7.30;;;1.93;;
1410;SDS011;700;51.906;8.404;2023-06-14T13:19:10;3.40;;;2.00;;
1410;SDS011;700;51.906;8.404;2023-06-14T13:24:11;4.03;;;1.80;;
1410;SDS011;700;51.906;8.404;2023-06-14T13:29:14;4.60;;;2.10;;
1410;SDS011;700;51.906;8.404;2023-06-14T13:34:14;3.43;;;2.00;;
1410;SDS011;700;51.906;8.404;2023-06-14T13:39:15;2.90;;;1.73;;
1410;SDS011;700;51.906;8.404;2023-06-14T13:44:18;4.30;;;1.87;;
1410;SDS011;700;51.906;8.404;2023-06-14T13:49:21;3.90;;;1.70;;
1410;SDS011;700;51.906;8.404;2023-06-14T13:54:21;3.67;;;2.00;;
1410;SDS011;700;51.906;8.404;2023-06-14T13:59:24;5.27;;;2.00;;
1410;SDS011;700;51.906;8.404;2023-06-14T14:04:25;3.13;;;1.67;;
1410;SDS011;700;51.906;8.404;2023-06-14T14:09:28;3.57;;;2.10;;
1410;SDS011;700;51.906;8.404;2023-06-14T14:14:32;3.40;;;1.90;;
1410;SDS011;700;51.906;8.404;2023-06-14T14:19:32;3.30;;;1.50;;
1410;SDS011;700;51.906;8.404;2023-06-14T14:24:35;3.60;;;1.70;;
1410;SDS011;700;51.906;8.404;2023-06-14T14:29:36;3.37;;;1.97;;
1410;SDS011;700;51.906;8.404;2023-06-14T14:34:39;4.33;;;1.73;;
1410;SDS011;700;51.906;8.404;2023-06-14T14:39:40;4.70;;;1.63;;
1410;SDS011;700;51.906;8.404;2023-06-14T14:44:43;3.40;;;1.70;;
1410;SDS011;700;51.906;8.404;2023-06-14T14:49:44;5.20;;;1.60;;
1410;SDS011;700;51.906;8.404;2023-06-14T14:54:45;4.13;;;1.73;;
1410;SDS011;700;51.906;8.404;2023-06-14T14:59:45;5.80;;;1.97;;
1410;SDS011;700;51.906;8.404;2023-06-14T15:04:46;4.20;;;2.17;;
1410;SDS011;700;51.906;8.404;2023-06-14T15:09:46;3.40;;;1.63;;
1410;SDS011;700;51.906;8.404;2023-06-14T15:14:50;4.83;;;2.20;;
1410;SDS011;700;51.906;8.404;2023-06-14T15:19:54;3.63;;;2.30;;
1410;SDS011;700;51.906;8.404;2023-06-14T15:24:55;6.70;;;2.17;;
1410;SDS011;700;51.906;8.404;2023-06-14T15:29:58;6.30;;;3.83;;
1410;SDS011;700;51.906;8.404;2023-06-14T15:34:58;3.80;;;2.13;;
1410;SDS011;700;51.906;8.404;2023-06-14T15:40:01;4.23;;;1.90;;
1410;SDS011;700;51.906;8.404;2023-06-14T15:45:02;3.90;;;2.27;;
1410;SDS011;700;51.906;8.404;2023-06-14T15:50:03;6.93;;;2.30;;
1410;SDS011;700;51.906;8.404;2023-06-14T15:55:07;3.67;;;2.23;;
1410;SDS011;700;51.906;8.404;2023-06-14T16:00:08;5.10;;;2.77;;
1410;SDS011;700;51.906;8.404;2023-06-14T16:05:11;5.80;;;2.70;;
1410;SDS011;700;51.906;8.404;2023-06-14T16:10:12;13.00;;;2.93;;
1410;SDS011;700;51.906;8.404;2023-06-14T16:15:12;4.50;;;2.43;;
1410;SDS011;700;51.906;8.404;2023-06-14T16:20:14;5.83;;;3.27;;
1410;SDS011;700;51.906;8.404;2023-06-14T16:25:18;6.03;;;2.50;;
1410;SDS011;700;51.906;8.404;2023-06-14T16:30:20;5.20;;;2.97;;
1410;SDS011;700;51.906;8.404;2023-06-14T16:35:21;7.57;;;2.80;;
1410;SDS011;700;51.906;8.404;2023-06-14T16:40:22;4.93;;;2.67;;
1410;SDS011;700;51.906;8.404;2023-06-14T16:45:25;4.13;;;2.80;;
1410;SDS011;700;51.906;8.404;2023-06-14T16:50:25;4.97;;;2.70;;
1410;SDS011;700;51.906;8.404;2023-06-14T16:55:26;4.43;;;2.77;;
1410;SDS011;700;51.906;8.404;2023-06-14T17:00:27;3.90;;;3.00;;
1410;SDS011;700;51.906;8.404;2023-06-14T17:05:27;4.40;;;2.63;;
1410;SDS011;700;51.906;8.404;2023-06-14T17:10:28;5.20;;;3.10;;
1410;SDS011;700;51.906;8.404;2023-06-14T17:15:28;4.90;;;3.13;;
1410;SDS011;700;51.906;8.404;2023-06-14T17:20:29;7.07;;;2.90;;
1410;SDS011;700;51.906;8.404;2023-06-14T17:25:32;7.03;;;3.00;;
1410;SDS011;700;51.906;8.404;2023-06-14T17:30:35;4.80;;;3.00;;
1410;SDS011;700;51.906;8.404;2023-06-14T17:35:38;5.00;;;3.20;;
1410;SDS011;700;51.906;8.404;2023-06-14T17:40:41;5.80;;;3.40;;
1410;SDS011;700;51.906;8.404;2023-06-14T17:45:42;5.13;;;3.10;;
1410;SDS011;700;51.906;8.404;2023-06-14T17:50:45;7.83;;;6.00;;
1410;SDS011;700;51.906;8.404;2023-06-14T17:55:45;7.63;;;3.20;;
1410;SDS011;700;51.906;8.404;2023-06-14T18:00:49;5.03;;;2.80;;
1410;SDS011;700;51.906;8.404;2023-06-14T18:05:50;7.53;;;3.30;;
1410;SDS011;700;51.906;8.404;2023-06-14T18:10:53;9.83;;;4.03;;
1410;SDS011;700;51.906;8.404;2023-06-14T18:15:55;5.50;;;3.60;;
1410;SDS011;700;51.906;8.404;2023-06-14T18:20:58;5.83;;;4.00;;
1410;SDS011;700;51.906;8.404;2023-06-14T18:26:02;5.90;;;3.40;;
1410;SDS011;700;51.906;8.404;2023-06-14T18:31:03;5.10;;;3.10;;
1410;SDS011;700;51.906;8.404;2023-06-14T18:36:06;5.97;;;4.33;;
1410;SDS011;700;51.906;8.404;2023-06-14T18:41:07;5.47;;;3.20;;
1410;SDS011;700;51.906;8.404;2023-06-14T18:46:10;4.30;;;3.33;;
1410;SDS011;700;51.906;8.404;2023-06-14T18:51:13;6.50;;;3.63;;
1410;SDS011;700;51.906;8.404;2023-06-14T18:56:16;5.33;;;3.13;;
1410;SDS011;700;51.906;8.404;2023-06-14T19:01:17;9.63;;;3.13;;
1410;SDS011;700;51.906;8.404;2023-06-14T19:06:18;5.87;;;3.77;;
1410;SDS011;700;51.906;8.404;2023-06-14T19:11:18;5.30;;;3.30;;
1410;SDS011;700;51.906;8.404;2023-06-14T19:16:19;4.43;;;3.23;;
1410;SDS011;700;51.906;8.404;2023-06-14T19:21:22;4.67;;;2.93;;
1410;SDS011;700;51.906;8.404;2023-06-14T19:26:22;5.20;;;3.20;;
1410;SDS011;700;51.906;8.404;2023-06-14T19:31:26;4.80;;;3.30;;
1410;SDS011;700;51.906;8.404;2023-06-14T19:36:26;5.27;;;3.47;;
1410;SDS011;700;51.906;8.404;2023-06-14T19:41:32;6.10;;;4.33;;
1410;SDS011;700;51.906;8.404;2023-06-14T19:46:32;7.60;;;3.70;;
1410;SDS011;700;51.906;8.404;2023-06-14T19:51:33;5.33;;;3.70;;
1410;SDS011;700;51.906;8.404;2023-06-14T19:56:33;5.00;;;3.47;;
1410;SDS011;700;51.906;8.404;2023-06-14T20:01:34;5.57;;;3.47;;
1410;SDS011;700;51.906;8.404;2023-06-14T20:06:35;8.00;;;4.10;;
1410;SDS011;700;51.906;8.404;2023-06-14T20:11:38;6.33;;;3.17;;
1410;SDS011;700;51.906;8.404;2023-06-14T20:16:42;5.37;;;3.83;;
1410;SDS011;700;51.906;8.404;2023-06-14T20:21:42;5.50;;;3.90;;
1410;SDS011;700;51.906;8.404;2023-06-14T20:26:43;8.30;;;4.03;;
1410;SDS011;700;51.906;8.404;2023-06-14T20:31:47;7.87;;;3.50;;
1410;SDS011;700;51.906;8.404;2023-06-14T20:36:48;7.23;;;4.33;;
1410;SDS011;700;51.906;8.404;2023-06-14T20:41:49;5.97;;;3.70;;
1410;SDS011;700;51.906;8.404;2023-06-14T20:46:50;6.67;;;3.87;;
1410;SDS011;700;51.906;8.404;2023-06-14T20:51:51;7.53;;;4.27;;
1410;SDS011;700;51.906;8.404;2023-06-14T20:56:52;5.10;;;4.00;;
1410;SDS011;700;51.906;8.404;2023-06-14T21:01:55;9.17;;;3.97;;
1410;SDS011;700;51.906;8.404;2023-06-14T21:06:56;7.93;;;4.63;;
1410;SDS011;700;51.906;8.404;2023-06-14T21:11:56;7.90;;;4.00;;
1410;SDS011;700;51.906;8.404;2023-06-14T21:16:59;5.63;;;3.60;;
1410;SDS011;700;51.906;8.404;2023-06-14T21:22:00;8.50;;;3.80;;
1410;SDS011;700;51.906;8.404;2023-06-14T21:27:01;6.63;;;3.80;;
1410;SDS011;700;51.906;8.404;2023-06-14T21:32:02;5.70;;;3.67;;
1410;SDS011;700;51.906;8.404;2023-06-14T21:37:03;8.93;;;4.07;;
1410;SDS011;700;51.906;8.404;2023-06-14T21:42:05;7.07;;;3.97;;
1410;SDS011;700;51.906;8.404;2023-06-14T21:47:07;6.00;;;4.23;;
1410;SDS011;700;51.906;8.404;2023-06-14T21:52:27;5.60;;;4.20;;
1410;SDS011;700;51.906;8.404;2023-06-14T21:57:46;9.80;;;4.53;;
1410;SDS011;700;51.906;8.404;2023-06-14T22:03:06;5.40;;;3.93;;
1410;SDS011;700;51.906;8.404;2023-06-14T22:08:07;5.37;;;4.10;;
1410;SDS011;700;51.906;8.404;2023-06-14T22:13:10;6.17;;;4.17;;
1410;SDS011;700;51.906;8.404;2023-06-14T22:18:11;8.00;;;4.30;;
1410;SDS011;700;51.906;8.404;2023-06-14T22:23:14;6.10;;;4.13;;
1410;SDS011;700;51.906;8.404;2023-06-14T22:28:19;7.40;;;4.57;;
1410;SDS011;700;51.906;8.404;2023-06-14T22:33:20;9.20;;;5.27;;
1410;SDS011;700;51.906;8.404;2023-06-14T22:38:25;8.47;;;6.03;;
1410;SDS011;700;51.906;8.404;2023-06-14T22:43:26;10.20;;;4.43;;
1410;SDS011;700;51.906;8.404;2023-06-14T22:48:29;5.93;;;4.27;;
1410;SDS011;700;51.906;8.404;2023-06-14T22:53:30;8.20;;;5.30;;
1410;SDS011;700;51.906;8.404;2023-06-14T22:58:38;5.60;;;4.80;;
1410;SDS011;700;51.906;8.404;2023-06-14T23:03:42;6.90;;;4.73;;
1410;SDS011;700;51.906;8.404;2023-06-14T23:08:49;7.43;;;4.60;;
1410;SDS011;700;51.906;8.404;2023-06-14T23:13:53;7.47;;;4.90;;
1410;SDS011;700;51.906;8.404;2023-06-14T23:18:56;8.77;;;5.27;;
1410;SDS011;700;51.906;8.404;2023-06-14T23:23:57;9.60;;;5.30;;
1410;SDS011;700;51.906;8.404;2023-06-14T23:29:04;6.93;;;4.90;;
1410;SDS011;700;51.906;8.404;2023-06-14T23:34:05;6.50;;;4.20;;
1410;SDS011;700;51.906;8.404;2023-06-14T23:39:11;9.00;;;5.40;;
1410;SDS011;700;51.906;8.404;2023-06-14T23:44:14;8.97;;;4.47;;
1410;SDS011;700;51.906;8.404;2023-06-14T23:49:21;8.60;;;4.53;;
1410;SDS011;700;51.906;8.404;2023-06-14T23:54:23;7.13;;;4.60;;
1410;SDS011;700;51.906;8.404;2023-06-14T23:59:27;10.97;;;5.53;;
